Time;durP1;ratioP1;P1;durP2;ratioP2;P2;SDS_P1;SDS_P2;PMS_P1;PMS_P2;Temp;Humidity;BMP_temperature;BMP_pressure;BME280_temperature;BME280_humidity;BME280_pressure;Samples;Min_cycle;Max_cycle;Signal;HPM_P1;HPM_P2
2023/01/18 00:00:44;;;;;;;18.98;11.18;;;10.00;74.00;;;;;;4991947;28;20045;-87
2023/01/18 00:03:11;;;;;;;20.92;11.15;;;10.00;74.20;;;;;;4976043;28;20029;-86
2023/01/18 00:05:39;;;;;;;17.90;11.20;;;10.00;74.00;;;;;;4990842;28;20052;-86
2023/01/18 00:08:11;;;;;;;15.32;10.70;;;9.90;74.00;;;;;;5008705;28;20571;-84
2023/01/18 00:10:37;;;;;;;19.90;11.32;;;10.00;74.00;;;;;;5025937;28;20475;-83
2023/01/18 00:13:03;;;;;;;20.88;12.23;;;10.00;73.90;;;;;;5012423;28;20419;-82
2023/01/18 00:15:33;;;;;;;19.13;11.10;;;10.00;73.80;;;;;;5005169;28;20029;-84
2023/01/18 00:17:59;;;;;;;19.55;11.50;;;10.00;73.90;;;;;;4991241;28;20044;-83
2023/01/18 00:20:27;;;;;;;22.25;10.90;;;10.00;74.20;;;;;;4991561;28;20034;-83
2023/01/18 00:22:53;;;;;;;19.02;10.88;;;9.90;74.20;;;;;;5008043;28;20057;-84
2023/01/18 00:25:22;;;;;;;18.80;11.13;;;9.90;74.30;;;;;;5005486;28;20069;-84
2023/01/18 00:27:51;;;;;;;19.80;12.02;;;10.00;74.40;;;;;;4985707;28;20491;-84
2023/01/18 00:30:22;;;;;;;19.67;11.30;;;10.00;74.60;;;;;;4993580;28;20029;-84
2023/01/18 00:32:52;;;;;;;18.05;10.90;;;9.90;74.50;;;;;;4995846;28;20029;-84
2023/01/18 00:35:20;;;;;;;19.90;10.77;;;9.90;74.60;;;;;;5008825;28;20116;-81
2023/01/18 00:37:50;;;;;;;22.20;12.25;;;10.00;74.60;;;;;;5011886;28;20129;-82
2023/01/18 00:40:21;;;;;;;16.98;10.10;;;10.00;74.50;;;;;;5028366;28;20038;-85
2023/01/18 00:45:31;;;;;;;20.27;11.30;;;10.00;74.30;;;;;;4996110;28;20133;-84
2023/01/18 00:47:57;;;;;;;18.70;11.52;;;9.90;74.10;;;;;;4991369;28;20112;-84
2023/01/18 00:50:23;;;;;;;19.10;11.63;;;10.00;74.30;;;;;;5011558;28;20095;-83
2023/01/18 00:52:49;;;;;;;20.35;11.32;;;9.90;74.20;;;;;;5029518;28;20034;-82
2023/01/18 00:55:16;;;;;;;20.15;11.82;;;10.00;74.40;;;;;;5002897;28;20068;-84
2023/01/18 00:57:42;;;;;;;17.48;11.38;;;10.00;74.60;;;;;;5010661;28;20033;-84
2023/01/18 01:00:11;;;;;;;23.45;11.88;;;10.00;74.30;;;;;;5012223;28;20029;-84
2023/01/18 01:02:39;;;;;;;19.67;11.52;;;10.00;74.20;;;;;;5010994;28;20566;-82
2023/01/18 01:07:52;;;;;;;20.90;12.25;;;10.00;74.00;;;;;;4993990;28;20034;-83
2023/01/18 01:10:18;;;;;;;18.95;11.73;;;10.00;74.00;;;;;;4994265;28;20477;-82
2023/01/18 01:26:26;;;;;;;17.42;10.48;;;9.90;74.30;;;;;;5011194;28;20466;-83
2023/01/18 01:28:52;;;;;;;19.33;10.93;;;9.90;74.10;;;;;;5010112;28;20041;-83
2023/01/18 01:31:19;;;;;;;18.70;11.38;;;9.90;73.90;;;;;;5010895;28;20041;-85
2023/01/18 01:33:49;;;;;;;16.83;10.95;;;9.90;73.90;;;;;;5028807;28;20209;-83
2023/01/18 01:36:18;;;;;;;18.95;11.60;;;9.90;73.90;;;;;;5029788;28;20067;-83
2023/01/18 01:38:44;;;;;;;15.05;10.27;;;9.90;73.70;;;;;;5010370;28;20067;-82
2023/01/18 01:41:17;;;;;;;17.60;10.43;;;9.90;73.70;;;;;;4994207;28;20030;-82
2023/01/18 01:43:48;;;;;;;18.13;10.65;;;9.90;73.70;;;;;;5028191;28;20034;-84
2023/01/18 01:46:47;;;;;;;15.95;10.52;;;9.90;73.70;;;;;;5028186;28;20436;-83
2023/01/18 01:49:19;;;;;;;17.95;10.73;;;9.90;73.70;;;;;;5009918;28;20426;-82
2023/01/18 01:52:09;;;;;;;15.93;10.50;;;9.90;73.50;;;;;;5026139;28;20112;-83
2023/01/18 01:54:48;;;;;;;15.82;10.05;;;9.90;73.40;;;;;;5009816;28;20119;-83
2023/01/18 01:57:37;;;;;;;17.17;9.93;;;9.90;73.30;;;;;;5028876;28;20032;-82
2023/01/18 02:00:12;;;;;;;15.63;10.18;;;9.90;73.80;;;;;;5002282;28;20124;-83
2023/01/18 02:02:39;;;;;;;15.63;10.00;;;9.90;73.30;;;;;;5028284;28;20507;-83
2023/01/18 02:05:08;;;;;;;15.13;9.80;;;9.90;73.40;;;;;;5028012;28;20111;-83
2023/01/18 02:07:34;;;;;;;15.95;10.23;;;9.90;73.30;;;;;;5010340;28;20037;-83
2023/01/18 02:10:02;;;;;;;15.95;10.10;;;9.90;73.30;;;;;;5010799;28;20103;-84
2023/01/18 02:12:29;;;;;;;15.25;9.45;;;9.90;73.40;;;;;;5008007;28;20075;-84
2023/01/18 02:14:57;;;;;;;15.05;10.40;;;9.90;73.40;;;;;;5008893;28;20091;-84
2023/01/18 02:17:30;;;;;;;15.75;10.40;;;9.90;73.40;;;;;;5008688;28;20041;-82
2023/01/18 02:20:47;;;;;;;15.52;10.45;;;9.90;73.40;;;;;;5000087;28;20411;-83
2023/01/18 02:23:34;;;;;;;15.02;10.52;;;9.90;73.30;;;;;;4961429;28;20046;-84
2023/01/18 02:26:20;;;;;;;15.02;9.82;;;9.90;73.30;;;;;;4965256;28;20035;-83
2023/01/18 02:28:59;;;;;;;18.58;9.93;;;9.90;73.50;;;;;;4965448;28;20085;-82
2023/01/18 02:31:32;;;;;;;15.68;9.98;;;9.90;73.50;;;;;;4966577;28;20593;-83
2023/01/18 02:34:30;;;;;;;15.48;10.15;;;9.90;73.60;;;;;;4965992;28;20433;-83
2023/01/18 02:37:26;;;;;;;14.18;9.40;;;9.90;73.70;;;;;;4892160;29;20452;-83
2023/01/18 02:40:11;;;;;;;16.48;9.95;;;9.90;73.40;;;;;;4871897;29;20424;-82
2023/01/18 02:48:20;;;;;;;14.10;8.90;;;9.90;73.30;;;;;;4882012;29;20112;-81
2023/01/18 02:50:46;;;;;;;16.33;9.90;;;9.90;73.40;;;;;;4891546;29;20093;-81
2023/01/18 02:53:13;;;;;;;15.25;9.60;;;9.90;73.50;;;;;;4873756;29;20036;-81
2023/01/18 02:55:57;;;;;;;14.70;9.00;;;9.90;73.40;;;;;;4886410;29;20076;-81
2023/01/18 02:58:37;;;;;;;12.68;8.73;;;9.90;73.30;;;;;;4946078;28;20195;-81
2023/01/18 03:01:06;;;;;;;14.32;9.88;;;9.90;73.20;;;;;;4946689;28;20035;-81
2023/01/18 03:03:34;;;;;;;13.98;9.20;;;9.90;73.00;;;;;;4899721;28;20039;-80
2023/01/18 03:06:02;;;;;;;12.40;9.00;;;9.80;72.80;;;;;;4947204;28;20586;-80
2023/01/18 03:08:46;;;;;;;13.90;9.48;;;9.90;72.90;;;;;;4930944;28;20074;-80
2023/01/18 03:11:21;;;;;;;16.67;9.95;;;9.90;72.90;;;;;;4929857;28;20039;-82
2023/01/18 03:13:56;;;;;;;12.63;9.18;;;9.90;72.90;;;;;;4983084;28;20033;-82
2023/01/18 03:16:25;;;;;;;13.95;8.77;;;9.90;72.90;;;;;;5005667;28;20447;-82
2023/01/18 03:19:03;;;;;;;13.68;9.60;;;9.90;72.80;;;;;;5008201;28;20515;-82
2023/01/18 03:21:40;;;;;;;13.07;9.15;;;9.90;72.80;;;;;;5019615;28;20029;-80
2023/01/18 03:24:08;;;;;;;14.15;9.07;;;9.90;72.70;;;;;;5009097;28;20072;-81
2023/01/18 03:26:41;;;;;;;13.30;8.57;;;9.90;72.60;;;;;;5026539;28;20091;-83
2023/01/18 03:35:15;;;;;;;12.73;8.85;;;9.90;72.80;;;;;;5024382;28;20447;-78
2023/01/18 03:37:44;;;;;;;14.05;8.88;;;9.90;72.80;;;;;;5025989;28;20100;-78
2023/01/18 03:40:14;;;;;;;14.23;8.88;;;9.90;73.00;;;;;;5024553;28;20135;-76
2023/01/18 03:43:04;;;;;;;18.73;9.60;;;9.90;73.10;;;;;;5024946;28;20516;-77
2023/01/18 03:45:36;;;;;;;14.60;9.05;;;9.90;73.10;;;;;;5026577;28;20447;-77
2023/01/18 03:48:03;;;;;;;12.93;8.70;;;9.90;72.90;;;;;;5026282;28;20091;-79
2023/01/18 03:51:12;;;;;;;12.48;8.18;;;9.90;72.90;;;;;;5026321;28;20043;-78
2023/01/18 03:53:49;;;;;;;13.70;8.95;;;9.90;72.80;;;;;;5006675;28;20732;-80
2023/01/18 03:56:21;;;;;;;15.07;8.43;;;9.90;72.80;;;;;;5026194;28;20036;-80
2023/01/18 03:58:51;;;;;;;13.45;8.55;;;9.90;72.70;;;;;;5008557;28;20038;-81
2023/01/18 04:01:17;;;;;;;12.25;8.38;;;9.90;72.70;;;;;;5008666;28;20033;-81
2023/01/18 04:03:43;;;;;;;11.85;7.93;;;9.90;72.70;;;;;;5004682;28;20559;-81
2023/01/18 04:06:09;;;;;;;12.70;8.95;;;9.90;72.50;;;;;;5026087;28;20129;-79
2023/01/18 04:08:35;;;;;;;11.93;8.05;;;9.90;72.40;;;;;;5025705;28;20545;-77
2023/01/18 04:11:01;;;;;;;13.52;8.52;;;9.90;72.50;;;;;;4990558;28;20072;-78
2023/01/18 04:13:27;;;;;;;11.73;8.05;;;9.90;72.50;;;;;;4999131;28;20038;-77
2023/01/18 04:15:53;;;;;;;12.60;8.32;;;9.90;72.50;;;;;;5006581;28;20432;-77
2023/01/18 04:18:19;;;;;;;13.07;8.27;;;9.90;72.40;;;;;;5007871;28;20034;-80
2023/01/18 04:20:45;;;;;;;13.50;8.05;;;9.90;72.30;;;;;;5024859;28;20037;-80
2023/01/18 04:23:11;;;;;;;14.57;7.78;;;9.90;72.30;;;;;;5023266;28;20048;-79
2023/01/18 04:25:39;;;;;;;14.38;8.43;;;9.90;72.20;;;;;;5020861;28;20040;-78
2023/01/18 04:28:07;;;;;;;13.13;7.78;;;9.90;72.30;;;;;;5010540;28;20145;-76
2023/01/18 04:30:33;;;;;;;11.32;7.75;;;9.90;72.80;;;;;;5025380;28;20485;-82
2023/01/18 04:32:58;;;;;;;13.43;7.93;;;9.90;72.10;;;;;;5023542;28;20608;-75
2023/01/18 04:35:24;;;;;;;12.23;8.15;;;9.90;72.10;;;;;;5025354;28;20033;-74
2023/01/18 04:37:52;;;;;;;15.00;8.02;;;9.90;72.00;;;;;;5024886;28;20504;-73
2023/01/18 04:40:18;;;;;;;12.43;7.60;;;9.90;72.20;;;;;;5024517;28;20037;-74
2023/01/18 04:42:50;;;;;;;12.75;7.78;;;9.90;72.20;;;;;;5024644;28;20036;-74
2023/01/18 04:45:17;;;;;;;11.45;7.63;;;9.90;72.20;;;;;;5020178;28;20029;-74
2023/01/18 04:47:43;;;;;;;12.20;7.53;;;9.90;72.50;;;;;;5029608;28;20512;-74
2023/01/18 04:50:10;;;;;;;13.50;8.10;;;9.90;72.50;;;;;;5024757;28;20120;-74
2023/01/18 04:52:36;;;;;;;15.57;8.23;;;9.90;72.70;;;;;;5011820;28;20033;-78
2023/01/18 04:55:02;;;;;;;12.70;8.48;;;9.90;73.00;;;;;;4992433;28;20044;-77
2023/01/18 04:57:28;;;;;;;14.02;9.13;;;9.90;73.20;;;;;;5025503;28;20419;-78
2023/01/18 04:59:54;;;;;;;12.48;8.18;;;10.00;73.40;;;;;;5006692;28;20544;-77
2023/01/18 05:02:20;;;;;;;14.05;8.63;;;9.90;73.60;;;;;;5007253;28;20038;-77
2023/01/18 05:04:46;;;;;;;13.95;9.23;;;10.00;73.80;;;;;;5024541;28;20042;-78
2023/01/18 05:07:12;;;;;;;15.48;8.82;;;10.00;74.00;;;;;;5005989;28;20535;-77
2023/01/18 05:09:38;;;;;;;12.75;8.88;;;10.00;74.50;;;;;;5006186;28;20029;-77
2023/01/18 05:12:04;;;;;;;14.23;8.98;;;10.00;74.50;;;;;;5006262;28;20029;-78
2023/01/18 05:14:30;;;;;;;14.55;9.45;;;10.00;74.50;;;;;;5007322;28;20049;-78
2023/01/18 05:16:56;;;;;;;13.38;9.02;;;10.00;74.60;;;;;;5007221;28;20068;-78
2023/01/18 05:19:22;;;;;;;15.25;8.70;;;10.00;74.50;;;;;;5027142;28;20033;-78
2023/01/18 05:21:48;;;;;;;15.38;9.05;;;10.00;74.30;;;;;;5010503;28;20029;-77
2023/01/18 05:24:14;;;;;;;14.38;8.82;;;10.00;74.20;;;;;;5029153;28;20108;-77
2023/01/18 05:26:40;;;;;;;14.43;9.10;;;10.00;73.90;;;;;;5011168;28;20037;-77
2023/01/18 05:29:06;;;;;;;14.65;8.73;;;10.00;73.80;;;;;;5008332;28;20053;-77
2023/01/18 05:31:31;;;;;;;17.38;8.52;;;10.00;73.60;;;;;;5028433;28;20033;-77
2023/01/18 05:33:57;;;;;;;12.77;8.73;;;10.00;73.40;;;;;;5028453;28;20516;-77
2023/01/18 05:36:23;;;;;;;12.48;8.10;;;10.00;73.40;;;;;;5029233;28;20025;-77
2023/01/18 05:38:49;;;;;;;13.07;8.77;;;10.00;73.30;;;;;;5008544;28;20037;-77
2023/01/18 05:41:15;;;;;;;13.30;8.10;;;10.00;73.30;;;;;;4994429;28;20042;-77
2023/01/18 05:43:41;;;;;;;16.10;9.13;;;10.00;73.20;;;;;;5028590;28;20061;-78
2023/01/18 05:46:07;;;;;;;15.35;8.23;;;10.00;73.20;;;;;;5027380;28;20262;-73
2023/01/18 05:48:33;;;;;;;16.10;8.50;;;10.00;73.30;;;;;;5027894;28;20025;-76
2023/01/18 05:50:59;;;;;;;20.52;9.23;;;10.00;79.60;;;;;;5027291;28;20436;-75
2023/01/18 05:53:25;;;;;;;13.73;8.70;;;10.10;78.80;;;;;;5009609;28;20033;-75
2023/01/18 05:55:59;;;;;;;12.50;8.00;;;10.20;79.90;;;;;;5026794;28;20033;-75
2023/01/18 05:58:26;;;;;;;14.05;8.55;;;10.30;79.80;;;;;;5027792;28;20033;-76
2023/01/18 06:00:52;;;;;;;13.30;8.27;;;10.40;77.90;;;;;;5002335;28;20495;-77
2023/01/18 06:03:19;;;;;;;13.85;8.10;;;10.50;77.30;;;;;;5027856;28;20120;-76
2023/01/18 06:05:46;;;;;;;14.10;8.98;;;10.60;77.20;;;;;;5025156;28;20531;-77
2023/01/18 06:08:12;;;;;;;13.00;8.90;;;10.60;76.40;;;;;;5026349;28;20033;-74
2023/01/18 06:10:39;;;;;;;15.60;8.30;;;10.70;76.70;;;;;;5026573;28;20044;-74
2023/01/18 06:13:05;;;;;;;14.82;8.23;;;10.80;76.10;;;;;;5026983;28;20049;-73
2023/01/18 06:15:32;;;;;;;12.45;8.38;;;10.80;74.10;;;;;;4992354;28;20037;-74
2023/01/18 06:17:58;;;;;;;13.60;8.65;;;10.80;72.40;;;;;;5008253;28;20061;-74
2023/01/18 06:20:29;;;;;;;14.55;8.70;;;10.80;71.40;;;;;;5027051;28;20029;-74
2023/01/18 06:22:58;;;;;;;11.60;7.95;;;10.70;70.10;;;;;;5027098;28;20033;-74
2023/01/18 06:25:24;;;;;;;12.52;7.78;;;10.70;69.30;;;;;;5026877;28;20456;-74
2023/01/18 06:27:50;;;;;;;14.30;8.05;;;10.60;68.90;;;;;;5026353;28;20180;-73
2023/01/18 06:30:17;;;;;;;12.32;8.20;;;10.60;68.90;;;;;;5026974;28;20029;-73
2023/01/18 06:32:43;;;;;;;13.35;8.05;;;10.60;68.90;;;;;;5026838;28;20389;-73
2023/01/18 06:35:09;;;;;;;13.82;8.43;;;10.60;68.80;;;;;;5008366;28;20331;-74
2023/01/18 06:37:35;;;;;;;14.80;8.38;;;10.50;68.70;;;;;;5026653;28;20040;-75
2023/01/18 06:40:01;;;;;;;19.00;8.60;;;10.50;68.40;;;;;;5026134;28;20045;-75
2023/01/18 06:42:27;;;;;;;14.00;8.23;;;10.50;68.30;;;;;;5026820;28;20688;-74
2023/01/18 06:44:52;;;;;;;13.38;8.48;;;10.40;68.30;;;;;;5026712;28;20051;-74
2023/01/18 06:47:19;;;;;;;14.00;8.48;;;10.40;68.20;;;;;;5004183;28;20076;-75
2023/01/18 06:49:48;;;;;;;12.48;8.30;;;10.40;68.20;;;;;;5026453;28;20686;-75
2023/01/18 06:52:15;;;;;;;14.43;7.70;;;10.30;68.10;;;;;;5026621;28;20037;-75
2023/01/18 06:54:41;;;;;;;13.90;7.97;;;10.30;68.00;;;;;;5027822;28;20133;-76
2023/01/18 06:57:07;;;;;;;11.23;7.63;;;10.30;68.00;;;;;;5031165;28;20044;-75
2023/01/18 06:59:33;;;;;;;13.73;8.25;;;10.30;67.90;;;;;;5030153;28;20029;-75
2023/01/18 07:01:59;;;;;;;12.15;7.85;;;10.30;67.70;;;;;;5030350;28;20521;-74
2023/01/18 07:04:25;;;;;;;13.48;8.65;;;10.20;67.70;;;;;;5029565;28;20421;-75
2023/01/18 07:06:51;;;;;;;15.48;8.57;;;10.20;67.70;;;;;;5027264;28;20408;-75
2023/01/18 07:09:17;;;;;;;11.40;7.70;;;10.20;67.70;;;;;;5026385;28;20033;-74
2023/01/18 07:11:43;;;;;;;12.35;7.80;;;10.10;67.50;;;;;;5026089;28;20034;-74
2023/01/18 07:14:10;;;;;;;13.23;7.75;;;10.10;67.50;;;;;;5025165;28;20551;-74
2023/01/18 07:16:36;;;;;;;12.25;7.50;;;10.10;67.60;;;;;;5025899;28;20040;-75
2023/01/18 07:19:03;;;;;;;13.55;7.78;;;10.10;67.60;;;;;;5025627;28;20039;-74
2023/01/18 07:21:30;;;;;;;14.10;7.93;;;10.10;67.50;;;;;;5009102;28;20056;-75
2023/01/18 07:23:57;;;;;;;13.23;7.80;;;10.00;67.20;;;;;;5025674;28;20082;-74
2023/01/18 07:26:24;;;;;;;12.52;7.57;;;10.00;67.20;;;;;;5025445;28;20044;-74
2023/01/18 07:28:50;;;;;;;12.63;7.63;;;10.00;67.20;;;;;;5007761;28;20894;-74
2023/01/18 07:31:17;;;;;;;12.77;7.63;;;10.00;67.10;;;;;;5006871;28;20120;-74
2023/01/18 07:33:43;;;;;;;14.23;8.25;;;10.00;66.90;;;;;;5005296;28;20066;-73
2023/01/18 07:36:10;;;;;;;13.85;8.18;;;10.00;66.80;;;;;;5007798;28;20021;-74
2023/01/18 07:38:37;;;;;;;12.25;8.05;;;9.90;66.60;;;;;;5025433;28;20029;-74
2023/01/18 07:41:07;;;;;;;12.93;7.65;;;10.00;66.70;;;;;;5025373;28;20057;-74
2023/01/18 07:43:33;;;;;;;14.55;9.10;;;9.90;66.60;;;;;;5025856;28;20033;-73
2023/01/18 07:46:02;;;;;;;13.70;7.53;;;9.90;66.50;;;;;;5024629;28;20041;-74
2023/01/18 07:48:29;;;;;;;13.35;8.52;;;9.90;66.60;;;;;;5025232;28;20035;-74
2023/01/18 07:51:01;;;;;;;12.32;7.90;;;9.90;66.50;;;;;;5025259;28;20048;-74
2023/01/18 07:53:29;;;;;;;13.07;7.47;;;9.80;66.20;;;;;;5024033;28;20574;-74
2023/01/18 07:55:59;;;;;;;15.80;8.43;;;9.90;66.20;;;;;;5024914;28;20389;-74
2023/01/18 07:58:26;;;;;;;17.45;8.80;;;9.90;66.40;;;;;;5003895;28;20083;-74
2023/01/18 08:00:52;;;;;;;14.38;8.20;;;9.80;66.60;;;;;;5025018;28;20112;-73
2023/01/18 08:03:20;;;;;;;17.35;8.30;;;9.80;66.60;;;;;;5005350;28;20127;-74
2023/01/18 08:05:47;;;;;;;18.10;8.98;;;9.80;66.50;;;;;;5025260;28;20034;-74
2023/01/18 08:08:15;;;;;;;12.95;7.82;;;9.80;66.50;;;;;;5024451;28;20037;-74
2023/01/18 08:10:42;;;;;;;14.05;8.23;;;9.80;66.40;;;;;;5024488;28;20049;-75
2023/01/18 08:13:09;;;;;;;14.80;8.07;;;9.80;66.40;;;;;;5002603;28;20596;-75
2023/01/18 08:15:36;;;;;;;12.82;8.00;;;9.70;66.30;;;;;;5025417;28;20068;-74
2023/01/18 08:18:04;;;;;;;13.45;8.52;;;9.80;66.20;;;;;;5025607;28;20148;-74
2023/01/18 08:20:30;;;;;;;16.73;8.85;;;9.70;66.30;;;;;;5024550;28;20451;-74
2023/01/18 08:22:57;;;;;;;13.95;8.60;;;9.70;66.40;;;;;;5025370;28;20121;-74
2023/01/18 08:25:28;;;;;;;12.88;8.38;;;9.70;66.60;;;;;;5025217;28;20423;-73
2023/01/18 08:27:59;;;;;;;15.43;8.93;;;9.70;66.70;;;;;;5025053;28;20542;-74
2023/01/18 08:30:29;;;;;;;14.18;8.32;;;9.70;66.90;;;;;;5024692;28;20025;-73
2023/01/18 08:32:56;;;;;;;16.75;8.85;;;9.70;67.10;;;;;;5003537;28;20049;-73
2023/01/18 08:35:24;;;;;;;15.82;8.98;;;9.70;67.30;;;;;;4991068;28;20544;-74
2023/01/18 08:37:51;;;;;;;15.70;9.40;;;9.70;67.40;;;;;;5006406;28;20573;-74
2023/01/18 08:40:19;;;;;;;16.30;9.18;;;9.70;67.40;;;;;;5024873;28;20504;-73
2023/01/18 08:42:48;;;;;;;13.05;9.02;;;9.70;67.70;;;;;;5006886;28;20022;-74
2023/01/18 08:45:14;;;;;;;17.35;9.38;;;9.70;67.80;;;;;;5025106;28;20443;-74
2023/01/18 08:47:41;;;;;;;16.70;9.63;;;9.70;68.10;;;;;;5019901;28;20145;-73
2023/01/18 08:50:09;;;;;;;14.30;7.60;;;9.80;71.40;;;;;;5027050;28;20040;-73
2023/01/18 08:52:35;;;;;;;12.77;8.02;;;9.80;74.40;;;;;;5028675;28;20095;-73
2023/01/18 08:55:05;;;;;;;13.25;7.95;;;9.90;74.40;;;;;;5030942;28;20481;-73
2023/01/18 08:57:32;;;;;;;14.45;8.68;;;10.00;74.00;;;;;;5014641;28;20049;-73
2023/01/18 08:59:58;;;;;;;15.35;8.63;;;10.10;73.40;;;;;;5014758;28;20516;-73
2023/01/18 09:02:24;;;;;;;14.45;8.48;;;10.30;73.10;;;;;;5026915;28;20056;-74
2023/01/18 09:04:52;;;;;;;15.45;9.40;;;10.30;71.60;;;;;;5031583;28;20064;-74
2023/01/18 09:07:18;;;;;;;19.85;9.13;;;10.40;71.10;;;;;;5014525;28;20076;-74
2023/01/18 09:09:44;;;;;;;27.88;10.27;;;10.40;69.90;;;;;;5033264;28;20415;-74
2023/01/18 09:12:11;;;;;;;25.05;11.00;;;10.50;69.60;;;;;;5010701;28;20269;-74
2023/01/18 09:14:37;;;;;;;25.75;10.52;;;10.50;68.90;;;;;;5026483;28;20056;-73
2023/01/18 09:17:03;;;;;;;23.58;10.63;;;10.60;68.70;;;;;;5028330;28;20516;-73
2023/01/18 09:19:29;;;;;;;23.08;10.68;;;10.60;67.90;;;;;;5010565;28;20471;-73
2023/01/18 09:21:55;;;;;;;26.20;10.80;;;10.70;67.70;;;;;;5028372;28;20111;-77
2023/01/18 09:24:21;;;;;;;25.80;11.38;;;10.70;67.40;;;;;;5011671;28;20119;-75
2023/01/18 09:26:50;;;;;;;22.00;11.73;;;10.70;65.20;;;;;;5028515;28;20588;-74
2023/01/18 09:29:16;;;;;;;18.45;11.15;;;10.60;62.70;;;;;;5027248;28;20045;-76
2023/01/18 09:31:43;;;;;;;18.05;11.00;;;10.40;60.30;;;;;;5010395;28;20064;-76
2023/01/18 09:34:11;;;;;;;20.27;12.10;;;10.10;59.70;;;;;;5027066;28;20045;-75
2023/01/18 09:36:38;;;;;;;22.38;12.18;;;9.90;59.80;;;;;;5028146;28;20124;-75
2023/01/18 09:39:05;;;;;;;20.58;11.15;;;9.70;60.90;;;;;;5028502;28;20033;-75
2023/01/18 09:41:36;;;;;;;23.17;10.77;;;9.60;61.70;;;;;;5027533;28;20042;-75
2023/01/18 09:44:28;;;;;;;21.05;11.63;;;9.40;62.50;;;;;;5027008;28;20029;-75
2023/01/18 09:47:10;;;;;;;22.08;12.45;;;9.30;63.00;;;;;;5005541;28;20038;-75
2023/01/18 09:49:44;;;;;;;22.35;11.98;;;9.10;63.50;;;;;;5006669;28;20504;-75
2023/01/18 09:52:19;;;;;;;22.80;12.32;;;9.00;64.10;;;;;;5026716;28;20033;-75
2023/01/18 09:54:53;;;;;;;26.25;12.70;;;8.90;64.40;;;;;;5008439;28;20835;-75
2023/01/18 09:58:01;;;;;;;22.52;11.95;;;8.80;64.50;;;;;;5018230;28;20056;-76
2023/01/18 10:00:37;;;;;;;22.83;11.73;;;8.80;64.70;;;;;;4958910;28;20069;-75
2023/01/18 10:03:33;;;;;;;20.00;11.85;;;8.70;64.80;;;;;;5023958;28;20482;-76
2023/01/18 10:06:30;;;;;;;20.70;12.27;;;8.50;64.60;;;;;;4982670;28;20091;-76
2023/01/18 10:09:09;;;;;;;19.20;11.75;;;8.50;64.70;;;;;;5002475;28;20041;-77
2023/01/18 10:11:49;;;;;;;19.88;11.30;;;8.40;65.10;;;;;;5009203;28;20034;-77
2023/01/18 10:14:28;;;;;;;19.60;11.98;;;8.30;65.10;;;;;;4964928;28;20057;-77
2023/01/18 10:17:07;;;;;;;23.40;12.70;;;8.30;65.10;;;;;;4984094;28;20064;-77
2023/01/18 10:20:11;;;;;;;20.85;12.60;;;8.20;64.70;;;;;;5006988;28;20033;-75
2023/01/18 10:23:24;;;;;;;23.45;11.98;;;8.10;64.80;;;;;;5008915;28;20094;-76
2023/01/18 10:26:05;;;;;;;25.70;12.65;;;8.00;64.90;;;;;;4952395;28;20498;-75
2023/01/18 10:29:31;;;;;;;23.10;12.20;;;7.90;65.10;;;;;;4964331;28;20051;-77
2023/01/18 10:32:41;;;;;;;21.45;11.98;;;7.90;65.20;;;;;;4974744;28;20088;-77
2023/01/18 10:35:45;;;;;;;19.48;11.38;;;7.80;65.60;;;;;;4960761;28;20084;-76
2023/01/18 10:38:28;;;;;;;19.77;11.52;;;7.80;65.60;;;;;;4980620;28;20039;-76
2023/01/18 10:41:04;;;;;;;26.40;12.20;;;7.70;65.80;;;;;;4984116;28;20541;-76
2023/01/18 10:43:43;;;;;;;18.45;11.60;;;7.70;65.70;;;;;;4974558;28;20073;-76
2023/01/18 10:46:19;;;;;;;20.90;11.85;;;7.60;65.90;;;;;;4984198;28;20034;-76
2023/01/18 10:48:58;;;;;;;21.77;11.48;;;7.60;66.10;;;;;;4983556;28;20484;-75
2023/01/18 10:51:40;;;;;;;17.33;11.30;;;7.60;66.50;;;;;;4962259;28;20912;-76
2023/01/18 10:54:27;;;;;;;19.83;12.15;;;7.50;66.50;;;;;;4937032;28;20038;-77
2023/01/18 10:57:05;;;;;;;21.25;11.55;;;7.50;66.70;;;;;;4972181;28;20038;-76
2023/01/18 10:59:38;;;;;;;19.60;11.05;;;7.50;66.90;;;;;;5002996;28;20432;-77
2023/01/18 11:02:12;;;;;;;19.80;11.05;;;7.50;67.10;;;;;;5026178;28;20029;-76
2023/01/18 11:04:40;;;;;;;19.00;11.00;;;7.50;67.40;;;;;;5008550;28;20389;-76
2023/01/18 11:07:07;;;;;;;21.48;11.20;;;7.50;67.60;;;;;;5026030;28;20041;-76
2023/01/18 11:09:58;;;;;;;20.70;11.15;;;7.40;67.50;;;;;;5026624;28;20057;-76
2023/01/18 11:12:46;;;;;;;19.73;11.55;;;7.40;67.60;;;;;;5024103;28;20041;-76
2023/01/18 11:15:12;;;;;;;21.70;12.32;;;7.40;67.70;;;;;;5008363;28;20049;-76
2023/01/18 11:17:54;;;;;;;21.02;11.50;;;7.40;67.70;;;;;;5026358;28;20037;-76
2023/01/18 11:20:47;;;;;;;23.42;12.02;;;7.40;67.90;;;;;;4992043;28;20051;-77
2023/01/18 11:23:28;;;;;;;21.60;11.98;;;7.40;68.20;;;;;;5004953;28;20215;-76
2023/01/18 11:25:59;;;;;;;20.55;11.50;;;7.40;68.20;;;;;;5025648;28;20041;-77
2023/01/18 11:28:47;;;;;;;21.02;11.23;;;7.30;68.40;;;;;;5006575;28;20231;-78
2023/01/18 11:31:16;;;;;;;20.13;11.50;;;7.40;68.50;;;;;;5025801;28;20412;-76
2023/01/18 11:33:54;;;;;;;19.45;11.23;;;7.30;68.00;;;;;;5025087;28;20029;-76
2023/01/18 11:36:42;;;;;;;26.17;12.18;;;7.30;68.30;;;;;;5025422;28;20112;-78
2023/01/18 11:39:23;;;;;;;21.00;11.75;;;7.30;68.30;;;;;;5023947;28;20056;-76
2023/01/18 11:41:50;;;;;;;20.98;12.02;;;7.20;68.10;;;;;;5007925;28;20037;-77
2023/01/18 11:44:23;;;;;;;21.98;12.13;;;7.20;68.10;;;;;;5025680;28;20036;-76
2023/01/18 11:46:54;;;;;;;18.30;12.00;;;7.10;68.30;;;;;;5025018;28;20044;-76
2023/01/18 11:49:42;;;;;;;22.85;10.95;;;7.10;68.40;;;;;;5000838;28;20092;-76
2023/01/18 11:52:36;;;;;;;16.52;11.07;;;7.10;68.50;;;;;;5025610;28;20634;-77
2023/01/18 11:55:10;;;;;;;23.08;11.15;;;7.10;68.90;;;;;;5023375;28;20179;-78
2023/01/18 11:57:36;;;;;;;19.15;11.35;;;7.00;69.00;;;;;;5026265;28;20186;-76
2023/01/18 12:00:03;;;;;;;19.98;11.43;;;7.00;69.10;;;;;;5026256;28;20634;-76
2023/01/18 12:02:54;;;;;;;18.90;10.63;;;7.10;69.10;;;;;;5025295;28;20451;-76
2023/01/18 12:05:53;;;;;;;22.65;11.10;;;7.10;69.30;;;;;;5024010;28;20076;-76
2023/01/18 12:08:37;;;;;;;20.35;10.77;;;7.10;69.10;;;;;;5004962;28;20083;-76
2023/01/18 12:12:00;;;;;;;20.58;11.30;;;7.10;68.90;;;;;;5025331;28;20036;-75
2023/01/18 12:14:54;;;;;;;21.05;10.70;;;7.10;68.80;;;;;;4982360;28;20127;-76
2023/01/18 12:17:41;;;;;;;17.08;10.68;;;7.10;68.30;;;;;;4982254;28;20042;-77
2023/01/18 12:20:48;;;;;;;18.00;10.15;;;7.10;68.80;;;;;;4966868;28;20042;-75
2023/01/18 12:23:16;;;;;;;17.77;10.38;;;7.10;69.60;;;;;;4868319;29;20093;-74
2023/01/18 12:26:00;;;;;;;17.02;9.90;;;7.20;68.80;;;;;;4869548;29;20068;-74
2023/01/18 12:29:15;;;;;;;21.85;10.00;;;7.20;68.70;;;;;;4868368;29;20068;-75
2023/01/18 12:31:43;;;;;;;19.33;10.55;;;7.20;68.40;;;;;;4865525;29;20045;-74
2023/01/18 12:34:35;;;;;;;18.63;11.13;;;7.20;67.40;;;;;;4868155;29;20492;-75
2023/01/18 12:37:45;;;;;;;19.23;10.52;;;7.20;67.10;;;;;;4849840;29;20521;-77
2023/01/18 12:40:38;;;;;;;20.92;10.85;;;7.10;67.10;;;;;;4849282;29;20481;-77
2023/01/18 12:43:23;;;;;;;19.60;10.02;;;7.10;67.20;;;;;;4850147;29;20045;-79
2023/01/18 12:45:57;;;;;;;20.63;10.57;;;7.10;67.60;;;;;;4863324;29;20135;-75
2023/01/18 12:48:39;;;;;;;17.40;9.88;;;7.20;67.70;;;;;;4868665;29;20202;-77
2023/01/18 12:51:15;;;;;;;18.88;10.88;;;7.20;67.10;;;;;;4868638;29;20564;-78
2023/01/18 12:53:50;;;;;;;21.10;10.48;;;7.10;66.70;;;;;;4853069;29;20045;-78
2023/01/18 12:56:30;;;;;;;20.38;10.23;;;7.00;66.30;;;;;;4869019;29;20487;-77
2023/01/18 12:59:11;;;;;;;18.33;10.20;;;7.10;66.30;;;;;;4908008;28;20079;-77
2023/01/18 13:01:43;;;;;;;22.17;9.95;;;7.00;66.10;;;;;;4928458;28;20039;-77
2023/01/18 13:04:26;;;;;;;17.35;10.48;;;7.00;66.40;;;;;;4943594;28;20097;-76
2023/01/18 13:06:58;;;;;;;23.23;10.52;;;6.90;66.50;;;;;;4943496;28;20044;-77
2023/01/18 13:09:32;;;;;;;20.02;10.73;;;6.90;66.40;;;;;;4944025;28;20027;-78
2023/01/18 13:12:01;;;;;;;23.05;10.48;;;6.90;66.40;;;;;;4944231;28;20043;-77
2023/01/18 13:15:03;;;;;;;17.70;11.00;;;6.80;65.80;;;;;;5003726;28;20417;-78
2023/01/18 13:17:34;;;;;;;20.00;10.20;;;6.80;65.90;;;;;;5024339;28;20048;-76
2023/01/18 13:20:09;;;;;;;20.67;9.80;;;6.70;65.50;;;;;;5024091;28;20033;-77
2023/01/18 13:22:55;;;;;;;19.90;10.40;;;6.70;65.70;;;;;;5016126;28;20075;-77
2023/01/18 13:25:53;;;;;;;19.33;9.80;;;6.70;66.10;;;;;;5003410;28;20284;-78
2023/01/18 13:28:22;;;;;;;16.77;9.57;;;6.70;65.70;;;;;;4984071;28;20060;-74
2023/01/18 13:30:59;;;;;;;19.15;9.82;;;6.70;65.90;;;;;;5024429;28;20159;-73
2023/01/18 13:33:37;;;;;;;19.42;10.25;;;6.60;65.80;;;;;;5024573;28;20101;-76
2023/01/18 13:36:07;;;;;;;19.98;10.35;;;6.60;65.90;;;;;;5026103;28;20033;-74
2023/01/18 13:38:37;;;;;;;18.80;9.95;;;6.60;66.00;;;;;;5010267;28;20421;-75